Airfield :
LOGIN :

Register | Disclaimer

   EN    FR    IT 

 










Legend :    VFR   Marginal VFR   IFR   Intensive IFR   Very Intensive IFR
Visi :
Ceiling :
>= 8 km
>= 3000ft
5 to 8 km
1000 to 3000 ft
1500m to 5 km
500 to 1000 ft
800 to 1500m
200 to 500 ft
< 800m
< 200 ft
Symbols :   Thunderstorms  Fog  Heavy snow  Heavy precipitations  Wind > 20 kt
SIGMETs :     Misc.  Thunderstorms  Icing  Turbulence  Mountain Waves  Volcanic Ashes







- Airport Elevation : 408 ft
- IATA code : SOB


LHSM - Sarmellek Balaton

EXPIRED METARs :
  • 241415Z 19008KT CAVOK 32/18 Q1014 NOSIG
  • 241345Z 21007KT CAVOK 32/18 Q1014 NOSIG
  • 241315Z 15006KT CAVOK 31/19 Q1015 NOSIG
  • 241245Z 17007KT CAVOK 31/17 Q1015 NOSIG
  • 241215Z 18006KT CAVOK 31/15 Q1016 NOSIG
  • 241145Z 19005KT CAVOK 30/16 Q1016 NOSIG

Expired Forecast.
No reported NOTAMs for that airfield.
2 SIGMETs reported for the Budapest FIR (LHCC) :
 
Embedded thunderstorms
LHCC SIGMET 04 VALID 250700/251000 LHBP
LHCC BUDAPEST FIR EMBD TS OBS WI N4640 E01810 - N4750 E02010 - N4710 E02110 - N4605 E01835 - N4640 E01810 TOP FL410 MOV E NC=
Embedded thunderstorms
LHCC SIGMET 03 VALID 250420/250700 LHBP
LHCC BUDAPEST FIR EMBD TS OBS WI N4730 E01724 - N4730 E01920 - N4610 E01910 - N4606 E01800 - N4652 E01653 - N4730 E01724 TOP FL440 MOV E NC=



MET'MAP, your aeronautical weather chart ! - Copyright ORBIFLY December 2007 - Disclaimer

ORBIFLY MET'MAP TEAM :

Programming & Development : Alexandra Zaïnal
Concept & Development : Baudouin d'Aumeries
Co-Development & Prog : Marc-Olivier Méhu
Technical & hardware support : Manuel Goepfert

Contact : metmap@orbifly.com




SOURCES & CREDITS :

   NOAA